sensor_id;sensor_type;location;lat;lon;timestamp;pressure;altitude;pressure_sealevel;temperature;humidity
71643;BME280;59438;45.014;39.006;2023-04-21T00:00:39;100410.91;;;11.64;77.26
71643;BME280;59438;45.014;39.006;2023-04-21T00:03:05;100413.59;;;11.63;77.11
71643;BME280;59438;45.014;39.006;2023-04-21T00:05:32;100418.06;;;11.61;77.56
71643;BME280;59438;45.014;39.006;2023-04-21T00:07:58;100405.06;;;11.58;77.55
71643;BME280;59438;45.014;39.006;2023-04-21T00:10:26;100412.13;;;11.57;77.53
71643;BME280;59438;45.014;39.006;2023-04-21T00:12:52;100405.13;;;11.56;77.10
71643;BME280;59438;45.014;39.006;2023-04-21T00:15:18;100407.69;;;11.58;77.45
71643;BME280;59438;45.014;39.006;2023-04-21T00:17:45;100400.59;;;11.60;77.93
71643;BME280;59438;45.014;39.006;2023-04-21T00:20:11;100407.53;;;11.61;78.04
71643;BME280;59438;45.014;39.006;2023-04-21T00:22:38;100402.28;;;11.61;77.77
71643;BME280;59438;45.014;39.006;2023-04-21T00:25:05;100405.78;;;11.61;77.99
71643;BME280;59438;45.014;39.006;2023-04-21T00:27:33;100404.78;;;11.64;78.53
71643;BME280;59438;45.014;39.006;2023-04-21T00:29:59;100402.94;;;11.66;78.15
71643;BME280;59438;45.014;39.006;2023-04-21T00:32:26;100402.09;;;11.65;78.39
71643;BME280;59438;45.014;39.006;2023-04-21T00:34:52;100406.41;;;11.66;78.39
71643;BME280;59438;45.014;39.006;2023-04-21T00:37:18;100402.00;;;11.67;78.08
71643;BME280;59438;45.014;39.006;2023-04-21T00:39:45;100406.41;;;11.66;78.29
71643;BME280;59438;45.014;39.006;2023-04-21T00:42:14;100399.47;;;11.65;78.66
71643;BME280;59438;45.014;39.006;2023-04-21T00:44:42;100406.47;;;11.65;78.23
71643;BME280;59438;45.014;39.006;2023-04-21T00:47:08;100410.97;;;11.63;78.61
71643;BME280;59438;45.014;39.006;2023-04-21T00:49:35;100403.94;;;11.63;78.00
71643;BME280;59438;45.014;39.006;2023-04-21T00:52:03;100397.81;;;11.63;78.81
71643;BME280;59438;45.014;39.006;2023-04-21T00:54:30;100395.19;;;11.63;78.31
71643;BME280;59438;45.014;39.006;2023-04-21T00:56:56;100396.97;;;11.62;78.38
71643;BME280;59438;45.014;39.006;2023-04-21T00:59:23;100392.53;;;11.63;78.23
71643;BME280;59438;45.014;39.006;2023-04-21T01:01:51;100385.66;;;11.60;78.36
71643;BME280;59438;45.014;39.006;2023-04-21T01:04:17;100388.22;;;11.62;78.93
71643;BME280;59438;45.014;39.006;2023-04-21T01:06:43;100392.63;;;11.61;78.27
71643;BME280;59438;45.014;39.006;2023-04-21T01:09:10;100382.97;;;11.62;78.34
71643;BME280;59438;45.014;39.006;2023-04-21T01:11:36;100382.97;;;11.62;78.81
71643;BME280;59438;45.014;39.006;2023-04-21T01:14:03;100375.19;;;11.59;79.01
71643;BME280;59438;45.014;39.006;2023-04-21T01:16:29;100378.59;;;11.61;78.49
71643;BME280;59438;45.014;39.006;2023-04-21T01:18:57;100368.31;;;11.56;78.38
71643;BME280;59438;45.014;39.006;2023-04-21T01:21:24;100380.34;;;11.62;78.91
71643;BME280;59438;45.014;39.006;2023-04-21T01:23:52;100362.13;;;11.57;78.62
71643;BME280;59438;45.014;39.006;2023-04-21T01:26:19;100377.75;;;11.60;78.68
71643;BME280;59438;45.014;39.006;2023-04-21T01:28:46;100374.28;;;11.60;79.16
71643;BME280;59438;45.014;39.006;2023-04-21T01:31:13;100373.50;;;11.58;79.07
71643;BME280;59438;45.014;39.006;2023-04-21T01:33:39;100377.03;;;11.57;78.31
71643;BME280;59438;45.014;39.006;2023-04-21T01:36:07;100365.69;;;11.56;78.65
71643;BME280;59438;45.014;39.006;2023-04-21T01:38:36;100359.69;;;11.53;79.05
71643;BME280;59438;45.014;39.006;2023-04-21T01:41:04;100361.63;;;11.49;79.02
71643;BME280;59438;45.014;39.006;2023-04-21T01:43:30;100365.97;;;11.50;79.11
71643;BME280;59438;45.014;39.006;2023-04-21T01:45:57;100359.97;;;11.46;78.75
71643;BME280;59438;45.014;39.006;2023-04-21T01:48:23;100368.81;;;11.45;79.14
71643;BME280;59438;45.014;39.006;2023-04-21T01:50:49;100370.66;;;11.43;79.30
71643;BME280;59438;45.014;39.006;2023-04-21T01:53:16;100382.97;;;11.43;79.32
71643;BME280;59438;45.014;39.006;2023-04-21T01:55:42;100378.66;;;11.40;79.58
71643;BME280;59438;45.014;39.006;2023-04-21T01:58:10;100379.59;;;11.39;79.93
71643;BME280;59438;45.014;39.006;2023-04-21T02:00:36;100382.38;;;11.36;79.24
71643;BME280;59438;45.014;39.006;2023-04-21T02:03:03;100384.09;;;11.37;79.64
71643;BME280;59438;45.014;39.006;2023-04-21T02:05:29;100379.88;;;11.33;79.17
71643;BME280;59438;45.014;39.006;2023-04-21T02:07:55;100389.28;;;11.39;79.27
71643;BME280;59438;45.014;39.006;2023-04-21T02:10:22;100383.94;;;11.40;79.29
71643;BME280;59438;45.014;39.006;2023-04-21T02:12:48;100395.38;;;11.39;79.15
71643;BME280;59438;45.014;39.006;2023-04-21T02:15:16;100394.44;;;11.40;79.31
71643;BME280;59438;45.014;39.006;2023-04-21T02:17:42;100388.34;;;11.40;79.41
71643;BME280;59438;45.014;39.006;2023-04-21T02:20:09;100386.78;;;11.36;79.27
71643;BME280;59438;45.014;39.006;2023-04-21T02:22:36;100396.97;;;11.43;79.36
71643;BME280;59438;45.014;39.006;2023-04-21T02:25:02;100394.25;;;11.45;79.50
71643;BME280;59438;45.014;39.006;2023-04-21T02:27:29;100393.38;;;11.44;79.36
71643;BME280;59438;45.014;39.006;2023-04-21T02:29:55;100403.00;;;11.45;79.57
71643;BME280;59438;45.014;39.006;2023-04-21T02:32:23;100401.16;;;11.47;79.28
71643;BME280;59438;45.014;39.006;2023-04-21T02:34:49;100394.13;;;11.48;79.73
71643;BME280;59438;45.014;39.006;2023-04-21T02:37:16;100405.41;;;11.50;78.98
71643;BME280;59438;45.014;39.006;2023-04-21T02:39:42;100399.59;;;11.43;78.91
71643;BME280;59438;45.014;39.006;2023-04-21T02:42:08;100408.88;;;11.50;79.22
71643;BME280;59438;45.014;39.006;2023-04-21T02:44:36;100408.88;;;11.50;78.96
71643;BME280;59438;45.014;39.006;2023-04-21T02:47:02;100414.16;;;11.50;79.31
71643;BME280;59438;45.014;39.006;2023-04-21T02:49:30;100406.19;;;11.52;79.39
71643;BME280;59438;45.014;39.006;2023-04-21T02:51:57;100403.63;;;11.50;78.63
71643;BME280;59438;45.014;39.006;2023-04-21T02:54:23;100400.16;;;11.50;78.64
71643;BME280;59438;45.014;39.006;2023-04-21T02:56:49;100404.56;;;11.49;78.72
71643;BME280;59438;45.014;39.006;2023-04-21T02:59:16;100409.75;;;11.51;79.38
71643;BME280;59438;45.014;39.006;2023-04-21T03:01:42;100401.09;;;11.49;79.06
71643;BME280;59438;45.014;39.006;2023-04-21T03:04:08;100387.50;;;11.39;78.67
71643;BME280;59438;45.014;39.006;2023-04-21T03:06:36;100411.47;;;11.52;79.65
71643;BME280;59438;45.014;39.006;2023-04-21T03:09:02;100417.56;;;11.53;79.34
71643;BME280;59438;45.014;39.006;2023-04-21T03:11:29;100385.22;;;11.32;79.09
71643;BME280;59438;45.014;39.006;2023-04-21T03:13:55;100421.97;;;11.52;78.67
71643;BME280;59438;45.014;39.006;2023-04-21T03:16:22;100428.09;;;11.53;78.55
71643;BME280;59438;45.014;39.006;2023-04-21T03:18:48;100423.69;;;11.53;78.73
71643;BME280;59438;45.014;39.006;2023-04-21T03:21:14;100428.97;;;11.53;78.97
71643;BME280;59438;45.014;39.006;2023-04-21T03:23:42;100422.81;;;11.53;79.07
71643;BME280;59438;45.014;39.006;2023-04-21T03:26:08;100416.78;;;11.50;78.52
71643;BME280;59438;45.014;39.006;2023-04-21T03:28:35;100411.41;;;11.54;78.06
71643;BME280;59438;45.014;39.006;2023-04-21T03:31:01;100409.50;;;11.57;78.28
71643;BME280;59438;45.014;39.006;2023-04-21T03:33:27;100408.03;;;11.50;78.63
71643;BME280;59438;45.014;39.006;2023-04-21T03:35:54;100417.28;;;11.59;78.93
71643;BME280;59438;45.014;39.006;2023-04-21T03:38:20;100406.75;;;11.59;78.41
71643;BME280;59438;45.014;39.006;2023-04-21T03:40:48;100418.06;;;11.61;78.27
71643;BME280;59438;45.014;39.006;2023-04-21T03:43:15;100425.84;;;11.64;78.34
71643;BME280;59438;45.014;39.006;2023-04-21T03:45:41;100416.09;;;11.66;77.86
71643;BME280;59438;45.014;39.006;2023-04-21T03:48:07;100422.06;;;11.69;78.67
71643;BME280;59438;45.014;39.006;2023-04-21T03:50:34;100423.75;;;11.70;78.32
71643;BME280;59438;45.014;39.006;2023-04-21T03:53:00;100419.44;;;11.69;78.19
71643;BME280;59438;45.014;39.006;2023-04-21T03:55:26;100425.28;;;11.76;77.92
71643;BME280;59438;45.014;39.006;2023-04-21T03:57:54;100411.56;;;11.69;78.12
71643;BME280;59438;45.014;39.006;2023-04-21T04:00:20;100428.69;;;11.78;78.37
71643;BME280;59438;45.014;39.006;2023-04-21T04:02:47;100432.88;;;11.82;77.86
71643;BME280;59438;45.014;39.006;2023-04-21T04:05:13;100429.25;;;11.85;77.78
71643;BME280;59438;45.014;39.006;2023-04-21T04:07:39;100432.66;;;11.87;77.75
71643;BME280;59438;45.014;39.006;2023-04-21T04:10:06;100435.25;;;11.88;78.23
71643;BME280;59438;45.014;39.006;2023-04-21T04:12:32;100433.47;;;11.89;78.16
71643;BME280;59438;45.014;39.006;2023-04-21T04:15:00;100435.03;;;11.93;78.17
71643;BME280;59438;45.014;39.006;2023-04-21T04:17:26;100430.69;;;11.92;77.25
71643;BME280;59438;45.014;39.006;2023-04-21T04:19:53;100431.16;;;12.00;77.53
71643;BME280;59438;45.014;39.006;2023-04-21T04:22:19;100427.41;;;12.06;77.90
71643;BME280;59438;45.014;39.006;2023-04-21T04:24:45;100423.63;;;12.12;77.83
71643;BME280;59438;45.014;39.006;2023-04-21T04:27:12;100430.41;;;12.17;77.27
71643;BME280;59438;45.014;39.006;2023-04-21T04:29:38;100431.97;;;12.21;77.14
71643;BME280;59438;45.014;39.006;2023-04-21T04:32:06;100423.97;;;12.23;76.94
71643;BME280;59438;45.014;39.006;2023-04-21T04:34:33;100420.13;;;12.30;76.96
71643;BME280;59438;45.014;39.006;2023-04-21T04:37:01;100423.28;;;12.37;77.05
71643;BME280;59438;45.014;39.006;2023-04-21T04:39:27;100422.09;;;12.44;76.80
71643;BME280;59438;45.014;39.006;2023-04-21T04:41:53;100420.91;;;12.49;76.52
71643;BME280;59438;45.014;39.006;2023-04-21T04:44:20;100432.84;;;12.57;76.45
71643;BME280;59438;45.014;39.006;2023-04-21T04:46:46;100415.78;;;12.64;76.10
71643;BME280;59438;45.014;39.006;2023-04-21T04:49:14;100408.78;;;12.64;76.21
71643;BME280;59438;45.014;39.006;2023-04-21T04:51:40;100421.41;;;12.75;75.84
71643;BME280;59438;45.014;39.006;2023-04-21T04:54:06;100417.75;;;12.78;75.30
71643;BME280;59438;45.014;39.006;2023-04-21T04:56:33;100421.69;;;12.86;75.49
71643;BME280;59438;45.014;39.006;2023-04-21T04:58:59;100421.63;;;12.88;75.45
71643;BME280;59438;45.014;39.006;2023-04-21T05:01:25;100421.69;;;12.86;75.37
71643;BME280;59438;45.014;39.006;2023-04-21T05:03:52;100415.00;;;12.97;75.71
71643;BME280;59438;45.014;39.006;2023-04-21T05:06:19;100426.78;;;13.07;75.41
71643;BME280;59438;45.014;39.006;2023-04-21T05:08:46;100417.66;;;13.14;75.14
71643;BME280;59438;45.014;39.006;2023-04-21T05:11:12;100424.34;;;13.20;74.68
71643;BME280;59438;45.014;39.006;2023-04-21T05:13:38;100411.94;;;13.22;74.61
71643;BME280;59438;45.014;39.006;2023-04-21T05:16:06;100421.41;;;13.26;74.66
71643;BME280;59438;45.014;39.006;2023-04-21T05:18:32;100420.34;;;13.30;74.70
71643;BME280;59438;45.014;39.006;2023-04-21T05:20:59;100416.59;;;13.34;74.84
71643;BME280;59438;45.014;39.006;2023-04-21T05:23:26;100425.22;;;13.38;73.95
71643;BME280;59438;45.014;39.006;2023-04-21T05:25:53;100428.69;;;13.38;73.88
71643;BME280;59438;45.014;39.006;2023-04-21T05:28:19;100421.56;;;13.40;74.00
71643;BME280;59438;45.014;39.006;2023-04-21T05:30:45;100428.38;;;13.44;73.94
71643;BME280;59438;45.014;39.006;2023-04-21T05:33:12;100432.56;;;13.48;73.90
71643;BME280;59438;45.014;39.006;2023-04-21T05:35:38;100424.31;;;13.55;73.90
71643;BME280;59438;45.014;39.006;2023-04-21T05:38:05;100429.44;;;13.58;73.43
71643;BME280;59438;45.014;39.006;2023-04-21T05:40:33;100433.94;;;13.56;72.99
71643;BME280;59438;45.014;39.006;2023-04-21T05:42:59;100433.25;;;13.52;73.27
71643;BME280;59438;45.014;39.006;2023-04-21T05:45:25;100435.13;;;13.50;73.43
71643;BME280;59438;45.014;39.006;2023-04-21T05:47:52;100444.13;;;13.46;73.06
71643;BME280;59438;45.014;39.006;2023-04-21T05:50:18;100447.03;;;13.41;73.35
71643;BME280;59438;45.014;39.006;2023-04-21T05:52:44;100444.53;;;13.38;73.33
71643;BME280;59438;45.014;39.006;2023-04-21T05:55:11;100430.75;;;13.33;73.10
71643;BME280;59438;45.014;39.006;2023-04-21T05:57:38;100426.84;;;13.23;72.96
71643;BME280;59438;45.014;39.006;2023-04-21T06:00:06;100434.00;;;13.21;73.12
71643;BME280;59438;45.014;39.006;2023-04-21T06:02:33;100439.59;;;13.15;73.10
71643;BME280;59438;45.014;39.006;2023-04-21T06:04:59;100442.47;;;13.10;73.20
71643;BME280;59438;45.014;39.006;2023-04-21T06:07:25;100439.97;;;13.07;73.58
71643;BME280;59438;45.014;39.006;2023-04-21T06:09:52;100433.84;;;13.06;73.51
71643;BME280;59438;45.014;39.006;2023-04-21T06:12:18;100438.22;;;13.07;73.40
71643;BME280;59438;45.014;39.006;2023-04-21T06:14:46;100428.25;;;13.13;73.45
71643;BME280;59438;45.014;39.006;2023-04-21T06:17:15;100430.41;;;13.22;73.18
71643;BME280;59438;45.014;39.006;2023-04-21T06:19:42;100437.72;;;13.34;73.18
71643;BME280;59438;45.014;39.006;2023-04-21T06:22:08;100438.09;;;13.44;73.20
71643;BME280;59438;45.014;39.006;2023-04-21T06:24:34;100440.25;;;13.53;72.64
71643;BME280;59438;45.014;39.006;2023-04-21T06:27:00;100430.91;;;13.63;72.57
71643;BME280;59438;45.014;39.006;2023-04-21T06:29:27;100431.22;;;13.73;72.41
71643;BME280;59438;45.014;39.006;2023-04-21T06:31:55;100427.75;;;13.88;72.27
71643;BME280;59438;45.014;39.006;2023-04-21T06:34:21;100423.16;;;14.08;72.00
71643;BME280;59438;45.014;39.006;2023-04-21T06:36:47;100426.28;;;14.30;71.96
71643;BME280;59438;45.014;39.006;2023-04-21T06:39:14;100420.38;;;14.57;71.29
71643;BME280;59438;45.014;39.006;2023-04-21T06:41:40;100428.59;;;14.83;71.12
71643;BME280;59438;45.014;39.006;2023-04-21T06:44:06;100425.69;;;15.02;70.74
71643;BME280;59438;45.014;39.006;2023-04-21T06:46:33;100426.00;;;15.11;69.59
71643;BME280;59438;45.014;39.006;2023-04-21T06:49:00;100429.19;;;15.17;69.49
71643;BME280;59438;45.014;39.006;2023-04-21T06:51:27;100420.13;;;15.21;69.52
71643;BME280;59438;45.014;39.006;2023-04-21T06:53:53;100431.09;;;15.29;69.09
71643;BME280;59438;45.014;39.006;2023-04-21T06:56:19;100437.75;;;15.36;69.48
71643;BME280;59438;45.014;39.006;2023-04-21T06:58:46;100427.63;;;15.43;68.82
71643;BME280;59438;45.014;39.006;2023-04-21T07:01:12;100426.41;;;15.48;68.94
71643;BME280;59438;45.014;39.006;2023-04-21T07:03:38;100429.59;;;15.54;69.04
71643;BME280;59438;45.014;39.006;2023-04-21T07:06:06;100416.06;;;15.58;68.00
71643;BME280;59438;45.014;39.006;2023-04-21T07:08:33;100411.72;;;15.57;68.07
71643;BME280;59438;45.014;39.006;2023-04-21T07:10:59;100405.97;;;15.50;67.88
71643;BME280;59438;45.014;39.006;2023-04-21T07:13:25;100407.38;;;15.42;67.55
71643;BME280;59438;45.014;39.006;2023-04-21T07:15:52;100412.19;;;15.35;67.96
71643;BME280;59438;45.014;39.006;2023-04-21T07:18:18;100413.34;;;15.31;68.04
71643;BME280;59438;45.014;39.006;2023-04-21T07:20:44;100406.16;;;15.33;67.90
71643;BME280;59438;45.014;39.006;2023-04-21T07:23:12;100410.31;;;15.37;67.29
71643;BME280;59438;45.014;39.006;2023-04-21T07:25:39;100423.63;;;15.50;67.47
71643;BME280;59438;45.014;39.006;2023-04-21T07:28:05;100422.22;;;15.59;67.09
71643;BME280;59438;45.014;39.006;2023-04-21T07:30:31;100417.31;;;15.67;66.37
71643;BME280;59438;45.014;39.006;2023-04-21T07:32:58;100416.53;;;15.79;66.37
71643;BME280;59438;45.014;39.006;2023-04-21T07:35:24;100406.44;;;15.86;66.04
71643;BME280;59438;45.014;39.006;2023-04-21T07:37:51;100408.16;;;16.00;65.61
71643;BME280;59438;45.014;39.006;2023-04-21T07:40:18;100406.28;;;16.02;65.14
71643;BME280;59438;45.014;39.006;2023-04-21T07:42:45;100406.41;;;16.00;65.25
71643;BME280;59438;45.014;39.006;2023-04-21T07:45:11;100422.06;;;16.03;65.76
71643;BME280;59438;45.014;39.006;2023-04-21T07:47:38;100413.19;;;16.04;64.72
71643;BME280;59438;45.014;39.006;2023-04-21T07:50:05;100413.38;;;16.01;64.27
71643;BME280;59438;45.014;39.006;2023-04-21T07:52:31;100412.63;;;15.99;64.42
71643;BME280;59438;45.014;39.006;2023-04-21T07:54:58;100422.47;;;15.97;64.05
71643;BME280;59438;45.014;39.006;2023-04-21T07:57:26;100425.03;;;15.99;62.92
71643;BME280;59438;45.014;39.006;2023-04-21T07:59:52;100418.38;;;16.06;63.67
71643;BME280;59438;45.014;39.006;2023-04-21T08:02:18;100415.31;;;16.12;63.26
71643;BME280;59438;45.014;39.006;2023-04-21T08:04:45;100419.47;;;16.16;63.35
71643;BME280;59438;45.014;39.006;2023-04-21T08:07:11;100407.63;;;16.22;62.75
71643;BME280;59438;45.014;39.006;2023-04-21T08:09:37;100410.84;;;16.27;63.00
71643;BME280;59438;45.014;39.006;2023-04-21T08:12:04;100409.78;;;16.29;62.61
71643;BME280;59438;45.014;39.006;2023-04-21T08:14:31;100410.72;;;16.28;61.76
71643;BME280;59438;45.014;39.006;2023-04-21T08:16:58;100408.94;;;16.29;62.29
71643;BME280;59438;45.014;39.006;2023-04-21T08:19:25;100404.28;;;16.32;62.25
71643;BME280;59438;45.014;39.006;2023-04-21T08:21:51;100405.91;;;16.35;62.02
71643;BME280;59438;45.014;39.006;2023-04-21T08:24:17;100394.97;;;16.40;61.62
71643;BME280;59438;45.014;39.006;2023-04-21T08:26:44;100414.63;;;16.50;61.23
71643;BME280;59438;45.014;39.006;2023-04-21T08:29:10;100417.81;;;16.55;60.85
71643;BME280;59438;45.014;39.006;2023-04-21T08:31:38;100421.22;;;16.57;59.64
71643;BME280;59438;45.014;39.006;2023-04-21T08:34:04;100411.06;;;16.64;60.67
71643;BME280;59438;45.014;39.006;2023-04-21T08:36:31;100419.53;;;16.69;60.41
71643;BME280;59438;45.014;39.006;2023-04-21T08:38:57;100419.34;;;16.72;60.16
71643;BME280;59438;45.014;39.006;2023-04-21T08:41:24;100417.63;;;16.71;60.49
71643;BME280;59438;45.014;39.006;2023-04-21T08:43:50;100418.78;;;16.67;60.84
71643;BME280;59438;45.014;39.006;2023-04-21T08:46:16;100425.91;;;16.66;60.96
71643;BME280;59438;45.014;39.006;2023-04-21T08:48:45;100425.16;;;16.64;59.74
71643;BME280;59438;45.014;39.006;2023-04-21T08:51:17;100438.41;;;16.64;59.84
71643;BME280;59438;45.014;39.006;2023-04-21T08:53:46;100447.13;;;16.66;60.49
71643;BME280;59438;45.014;39.006;2023-04-21T08:56:12;100437.38;;;16.67;60.12
71643;BME280;59438;45.014;39.006;2023-04-21T08:58:38;100439.34;;;16.63;60.07
71643;BME280;59438;45.014;39.006;2023-04-21T09:01:05;100438.00;;;16.58;59.66
71643;BME280;59438;45.014;39.006;2023-04-21T09:03:31;100431.38;;;16.50;60.18
71643;BME280;59438;45.014;39.006;2023-04-21T09:06:00;100435.75;;;16.51;59.27
71643;BME280;59438;45.014;39.006;2023-04-21T09:08:27;100443.06;;;16.61;60.10
71643;BME280;59438;45.014;39.006;2023-04-21T09:10:55;100444.25;;;16.69;59.94
71643;BME280;59438;45.014;39.006;2023-04-21T09:13:28;100456.25;;;16.75;58.92
71643;BME280;59438;45.014;39.006;2023-04-21T09:15:55;100435.88;;;16.76;59.64
71643;BME280;59438;45.014;39.006;2023-04-21T09:18:22;100425.75;;;16.55;59.45
71643;BME280;59438;45.014;39.006;2023-04-21T09:20:51;100438.00;;;16.58;58.79
71643;BME280;59438;45.014;39.006;2023-04-21T09:23:19;100430.53;;;16.50;58.15
71643;BME280;59438;45.014;39.006;2023-04-21T09:25:46;100446.03;;;16.56;59.40
71643;BME280;59438;45.014;39.006;2023-04-21T09:28:13;100442.88;;;16.64;59.15
71643;BME280;59438;45.014;39.006;2023-04-21T09:30:40;100439.59;;;16.73;58.65
71643;BME280;59438;45.014;39.006;2023-04-21T09:33:07;100435.78;;;16.77;58.56
71643;BME280;59438;45.014;39.006;2023-04-21T09:35:39;100446.69;;;16.87;58.66
71643;BME280;59438;45.014;39.006;2023-04-21T09:38:09;100424.06;;;16.81;57.23
71643;BME280;59438;45.014;39.006;2023-04-21T09:40:37;100449.44;;;16.98;57.93
71643;BME280;59438;45.014;39.006;2023-04-21T09:43:04;100447.53;;;17.00;58.46
71643;BME280;59438;45.014;39.006;2023-04-21T09:45:31;100443.94;;;17.01;58.10
71643;BME280;59438;45.014;39.006;2023-04-21T09:47:59;100451.66;;;17.04;57.25
71643;BME280;59438;45.014;39.006;2023-04-21T09:50:26;100454.13;;;17.07;57.85
71643;BME280;59438;45.014;39.006;2023-04-21T09:52:54;100449.16;;;17.03;57.25
71643;BME280;59438;45.014;39.006;2023-04-21T09:55:23;100450.59;;;16.94;56.70
71643;BME280;59438;45.014;39.006;2023-04-21T09:57:51;100460.34;;;16.81;56.64
71643;BME280;59438;45.014;39.006;2023-04-21T10:00:20;100460.28;;;16.68;57.18
71643;BME280;59438;45.014;39.006;2023-04-21T10:02:50;100459.19;;;16.58;57.49
71643;BME280;59438;45.014;39.006;2023-04-21T10:05:18;100459.03;;;16.46;58.26
71643;BME280;59438;45.014;39.006;2023-04-21T10:07:46;100464.09;;;16.37;58.40
71643;BME280;59438;45.014;39.006;2023-04-21T10:10:19;100462.03;;;16.27;57.71
71643;BME280;59438;45.014;39.006;2023-04-21T10:12:48;100463.38;;;16.20;59.12
71643;BME280;59438;45.014;39.006;2023-04-21T10:15:30;100465.19;;;16.20;58.26
71643;BME280;59438;45.014;39.006;2023-04-21T10:18:11;100458.06;;;16.20;58.75
71643;BME280;59438;45.014;39.006;2023-04-21T10:20:50;100460.59;;;16.36;58.79
71643;BME280;59438;45.014;39.006;2023-04-21T10:23:28;100463.28;;;16.49;58.53
71643;BME280;59438;45.014;39.006;2023-04-21T10:26:01;100466.09;;;16.60;57.87
71643;BME280;59438;45.014;39.006;2023-04-21T10:28:42;100474.38;;;16.68;57.49
71643;BME280;59438;45.014;39.006;2023-04-21T10:31:29;100458.88;;;16.62;56.91
71643;BME280;59438;45.014;39.006;2023-04-21T10:34:18;100470.66;;;16.58;57.66
71643;BME280;59438;45.014;39.006;2023-04-21T10:39:31;100442.88;;;16.37;58.27
71643;BME280;59438;45.014;39.006;2023-04-21T10:42:17;100477.09;;;16.54;57.10
71643;BME280;59438;45.014;39.006;2023-04-21T10:44:50;100473.34;;;16.44;58.56
71643;BME280;59438;45.014;39.006;2023-04-21T10:47:23;100468.63;;;16.35;58.11
71643;BME280;59438;45.014;39.006;2023-04-21T10:49:50;100471.53;;;16.17;59.01
71643;BME280;59438;45.014;39.006;2023-04-21T10:52:18;100472.78;;;16.11;59.24
71643;BME280;59438;45.014;39.006;2023-04-21T10:55:05;100489.06;;;16.05;58.75
71643;BME280;59438;45.014;39.006;2023-04-21T10:57:33;100484.91;;;15.87;59.43
71643;BME280;59438;45.014;39.006;2023-04-21T11:00:00;100475.34;;;15.70;59.92
71643;BME280;59438;45.014;39.006;2023-04-21T11:02:28;100481.88;;;15.64;60.43
71643;BME280;59438;45.014;39.006;2023-04-21T11:04:54;100490.19;;;15.58;60.85
71643;BME280;59438;45.014;39.006;2023-04-21T11:07:21;100491.44;;;15.52;60.54
71643;BME280;59438;45.014;39.006;2023-04-21T11:10:06;100488.88;;;15.51;60.61
71643;BME280;59438;45.014;39.006;2023-04-21T11:12:33;100482.25;;;15.44;61.12
71643;BME280;59438;45.014;39.006;2023-04-21T11:15:03;100497.09;;;15.46;61.58
71643;BME280;59438;45.014;39.006;2023-04-21T11:17:32;100494.72;;;15.42;61.71
71643;BME280;59438;45.014;39.006;2023-04-21T11:20:01;100488.94;;;15.35;61.43
71643;BME280;59438;45.014;39.006;2023-04-21T11:22:28;100499.81;;;15.30;62.10
71643;BME280;59438;45.014;39.006;2023-04-21T11:24:55;100492.91;;;15.28;61.81
71643;BME280;59438;45.014;39.006;2023-04-21T11:27:22;100482.81;;;15.35;62.28
71643;BME280;59438;45.014;39.006;2023-04-21T11:29:51;100473.75;;;15.39;62.27
71643;BME280;59438;45.014;39.006;2023-04-21T11:32:17;100461.56;;;15.50;62.25
71643;BME280;59438;45.014;39.006;2023-04-21T11:34:45;100480.09;;;15.65;61.96
71643;BME280;59438;45.014;39.006;2023-04-21T11:37:15;100484.94;;;15.73;61.55
71643;BME280;59438;45.014;39.006;2023-04-21T11:39:42;100487.41;;;15.76;61.46
71643;BME280;59438;45.014;39.006;2023-04-21T11:42:09;100484.00;;;15.74;61.67
71643;BME280;59438;45.014;39.006;2023-04-21T11:44:37;100465.72;;;15.55;62.14
71643;BME280;59438;45.014;39.006;2023-04-21T11:47:16;100476.09;;;15.58;61.41
71643;BME280;59438;45.014;39.006;2023-04-21T11:49:45;100480.72;;;15.40;61.58
71643;BME280;59438;45.014;39.006;2023-04-21T11:52:19;100494.84;;;15.40;61.94
71643;BME280;59438;45.014;39.006;2023-04-21T11:54:46;100477.44;;;15.36;62.21
71643;BME280;59438;45.014;39.006;2023-04-21T11:57:12;100476.19;;;15.42;62.53
71643;BME280;59438;45.014;39.006;2023-04-21T11:59:44;100467.22;;;15.44;62.58
71643;BME280;59438;45.014;39.006;2023-04-21T12:02:12;100445.31;;;15.42;62.66
71643;BME280;59438;45.014;39.006;2023-04-21T12:04:39;100472.53;;;15.59;62.29
71643;BME280;59438;45.014;39.006;2023-04-21T12:07:06;100467.16;;;15.75;62.75
71643;BME280;59438;45.014;39.006;2023-04-21T12:09:35;100449.72;;;15.85;62.75
71643;BME280;59438;45.014;39.006;2023-04-21T12:12:03;100476.00;;;16.17;61.90
71643;BME280;59438;45.014;39.006;2023-04-21T12:14:32;100440.44;;;16.06;60.66
71643;BME280;59438;45.014;39.006;2023-04-21T12:16:59;100467.88;;;16.32;61.16
71643;BME280;59438;45.014;39.006;2023-04-21T12:19:35;100471.19;;;16.36;60.18
71643;BME280;59438;45.014;39.006;2023-04-21T12:22:05;100470.66;;;16.31;60.80
71643;BME280;59438;45.014;39.006;2023-04-21T12:24:33;100472.81;;;16.24;59.96
71643;BME280;59438;45.014;39.006;2023-04-21T12:27:02;100471.19;;;16.09;60.65
71643;BME280;59438;45.014;39.006;2023-04-21T12:29:28;100479.69;;;16.00;61.04
71643;BME280;59438;45.014;39.006;2023-04-21T12:31:55;100474.03;;;15.91;61.39
71643;BME280;59438;45.014;39.006;2023-04-21T12:34:21;100478.31;;;15.80;61.74
71643;BME280;59438;45.014;39.006;2023-04-21T12:36:49;100477.66;;;15.76;61.62
71643;BME280;59438;45.014;39.006;2023-04-21T12:39:15;100478.00;;;15.70;61.38
71643;BME280;59438;45.014;39.006;2023-04-21T12:41:44;100474.50;;;15.69;61.21
71643;BME280;59438;45.014;39.006;2023-04-21T12:44:10;100471.19;;;15.66;61.78